• Join FlightAware (Why Join?)
  • Login
  • US Flag 
08:00AM EDT


 

Airport Tracker/Info


-or-


 

Live Flight TrackerFlight Track Log ✈ TFX155 ✈ 04-Jul-2013 ✈ YSBK / BWU - YMML / MEL

Flight Track Log - Related Links

Times and Time Zones

All times are in EDT time to prevent confusion due to time zone crossing. See the TFX155 flight status page for this flight to view local times or setup timezone preferences in your user account.

Time Position Orientation Groundspeed Altitude Reporting Facility
EDT Latitude Longitude Course Direction KTS MPH feet Rate Location/Type
08:58AM -33.9558 150.9602 185° South 183 211 3,100  Level Aus ATC (RADAR)
08:58AM -33.9827 150.9576 185° South 168 193 4,200 1,800 Climbing Aus ATC (RADAR)
08:59AM -34.0066 150.9460 202° Southwest 158 182 5,200 1,620 Climbing Aus ATC (RADAR)
09:00AM -34.0313 150.9348 201° Southwest 160 184 6,100 1,620 Climbing Aus ATC (RADAR)
09:01AM -34.0740 150.9096 206° Southwest 152 175 7,900 1,440 Climbing Aus ATC (RADAR)
09:02AM -34.1199 150.8876 202° Southwest 165 190 9,300 1,200 Climbing Aus ATC (RADAR)
09:03AM -34.1697 150.8640 201° Southwest 179 206 10,600 1,200 Climbing Aus ATC (RADAR)
09:04AM -34.2196 150.8404 201° Southwest 179 206 12,000 1,140 Climbing Aus ATC (RADAR)
09:05AM -34.2714 150.8131 204° Southwest 190 219 13,100 960 Climbing Aus ATC (RADAR)
09:06AM -34.3277 150.7843 203° Southwest 206 237 14,100 360 Climbing Aus ATC (RADAR)
09:07AM -34.3727 150.7248 227° Southwest 223 257 13,900 -120 Descending Aus ATC (RADAR)
09:08AM -34.4118 150.6579 235° Southwest 241 277 13,900  Level Aus ATC (RADAR)
09:09AM -34.4526 150.5909 234° Southwest 240 276 13,900  Level Aus ATC (RADAR)
09:10AM -34.4934 150.5190 235° Southwest 236 272 13,900  Level Aus ATC (RADAR)
09:11AM -34.5397 150.4431 233° Southwest 237 273 13,900  Level Aus ATC (RADAR)
09:12AM -34.5806 150.3812 231° Southwest 232 267 13,900  Level Aus ATC (RADAR)
09:13AM -34.6206 150.3131 234° Southwest 224 258 13,900  Level Aus ATC (RADAR)
09:15AM -34.6653 150.2306 237° Southwest 213 245 13,900  Level Aus ATC (RADAR)
09:16AM -34.6952 150.1821 233° Southwest 212 244 13,900  Level Aus ATC (RADAR)
09:17AM -34.7312 150.1187 235° Southwest 207 238 13,900  Level Aus ATC (RADAR)
09:18AM -34.7733 150.0521 232° Southwest 210 242 13,900  Level Aus ATC (RADAR)
09:19AM -34.8088 149.9943 233° Southwest 211 243 13,900  Level Aus ATC (RADAR)
09:20AM -34.8465 149.9300 234° Southwest 213 245 13,900  Level Aus ATC (RADAR)
09:21AM -34.8826 149.8709 233° Southwest 216 249 13,900  Level Aus ATC (RADAR)
09:22AM -34.9219 149.8039 234° Southwest 222 255 13,900  Level Aus ATC (RADAR)
09:23AM -34.9607 149.7431 232° Southwest 224 258 13,900  Level Aus ATC (RADAR)
09:24AM -35.0038 149.6683 235° Southwest 228 262 13,900  Level Aus ATC (RADAR)
09:25AM -35.0465 149.5988 233° Southwest 232 267 13,900  Level Aus ATC (RADAR)
09:26AM -35.0887 149.5304 233° Southwest 230 265 13,900  Level Aus ATC (RADAR)
09:27AM -35.1276 149.4615 235° Southwest 224 258 13,900  Level Aus ATC (RADAR)
09:28AM -35.1685 149.3922 234° Southwest 229 264 13,900  Level Aus ATC (RADAR)
09:30AM -35.2117 149.3183 234° Southwest 229 264 13,900  Level Aus ATC (RADAR)
09:31AM -35.2531 149.2505 233° Southwest 226 260 13,900  Level Aus ATC (RADAR)
09:32AM -35.2896 149.1888 234° Southwest 224 258 13,900  Level Aus ATC (RADAR)
09:33AM -35.3376 149.1172 231° Southwest 231 266 13,900  Level Aus ATC (RADAR)
09:34AM -35.3778 149.0550 232° Southwest 233 268 13,900  Level Aus ATC (RADAR)
09:35AM -35.4207 148.9888 232° Southwest 225 259 13,900  Level Aus ATC (RADAR)
09:36AM -35.4642 148.9226 231° Southwest 229 264 13,900  Level Aus ATC (RADAR)
09:37AM -35.5089 148.8554 231° Southwest 230 265 13,900  Level Aus ATC (RADAR)
09:38AM -35.5507 148.7948 230° Southwest 232 267 13,900  Level Aus ATC (RADAR)
09:39AM -35.5970 148.7227 232° Southwest 230 265 13,900  Level Aus ATC (RADAR)
09:40AM -35.6406 148.6543 232° Southwest 234 269 13,900  Level Aus ATC (RADAR)
09:41AM -35.6816 148.5922 231° Southwest 231 266 13,900  Level Aus ATC (RADAR)
09:42AM -35.7236 148.5248 232° Southwest 225 259 13,900  Level Aus ATC (RADAR)
09:44AM -35.7672 148.4572 231° Southwest 231 266 13,900  Level Aus ATC (RADAR)
09:45AM -35.8155 148.3769 233° Southwest 233 268 13,900  Level Aus ATC (RADAR)
09:46AM -35.8473 148.3178 236° Southwest 222 255 13,900  Level Aus ATC (RADAR)
09:47AM -35.8857 148.2529 234° Southwest 215 247 13,900 420 Level Aus ATC (RADAR)
09:48AM -35.9227 148.1984 230° Southwest 197 227 14,800 960 Climbing Aus ATC (RADAR)
09:49AM -35.9644 148.1574 219° Southwest 159 183 16,000 420 Climbing Aus ATC (RADAR)
09:50AM -35.9933 148.1077 234° Southwest 178 205 15,800 -120 Descending Aus ATC (RADAR)
09:51AM -36.0254 148.0417 239° Southwest 190 219 15,800  Level Aus ATC (RADAR)
09:52AM -36.0546 147.9837 238° Southwest 203 234 15,800  Level Aus ATC (RADAR)
09:53AM -36.0950 147.9240 230° Southwest 210 242 15,800  Level Aus ATC (RADAR)
09:54AM -36.1344 147.8604 233° Southwest 211 243 15,800  Level Aus ATC (RADAR)
09:55AM -36.1688 147.7963 236° Southwest 207 238 15,800  Level Aus ATC (RADAR)
09:56AM -36.2053 147.7317 235° Southwest 214 246 15,800  Level Aus ATC (RADAR)
09:58AM -36.2433 147.6620 236° Southwest 206 237 15,800  Level Aus ATC (RADAR)
09:59AM -36.2761 147.6033 235° Southwest 206 237 15,800  Level Aus ATC (RADAR)
10:00AM -36.3170 147.5308 235° Southwest 204 235 15,800  Level Aus ATC (RADAR)
10:01AM -36.3452 147.4752 238° Southwest 208 239 15,800  Level Aus ATC (RADAR)
10:02AM -36.3790 147.4061 239° Southwest 216 249 15,800  Level Aus ATC (RADAR)
10:03AM -36.4173 147.3448 232° Southwest 222 255 15,800  Level Aus ATC (RADAR)
10:04AM -36.4615 147.2755 232° Southwest 218 251 15,800  Level Aus ATC (RADAR)
10:05AM -36.4917 147.2112 240° Southwest 218 251 15,800  Level Aus ATC (RADAR)
10:06AM -36.5280 147.1442 236° Southwest 217 250 15,800  Level Aus ATC (RADAR)
10:07AM -36.5663 147.0785 234° Southwest 216 249 15,800  Level Aus ATC (RADAR)
10:08AM -36.5969 147.0097 241° Southwest 211 243 15,800 -60 Level Aus ATC (RADAR)
10:09AM -36.6288 146.9509 236° Southwest 204 235 15,700 -540 Descending Aus ATC (RADAR)
10:10AM -36.6640 146.8850 236° Southwest 208 239 14,700 -840 Descending Aus ATC (RADAR)
10:11AM -36.6982 146.8222 236° Southwest 205 236 13,900 -960 Descending Aus ATC (RADAR)
10:12AM -36.7336 146.7599 235° Southwest 204 235 12,700 -1,020 Descending Aus ATC (RADAR)
10:14AM -36.7663 146.7040 234° Southwest 181 208 11,800 -1,020 Descending Aus ATC (RADAR)
10:15AM -36.7941 146.6489 238° Southwest 175 201 10,500 -960 Descending Aus ATC (RADAR)
10:16AM -36.8166 146.5946 243° Southwest 179 206 9,900 -300 Descending Aus ATC (RADAR)
10:17AM -36.8436 146.5235 245° Southwest 196 226 9,900  Level Aus ATC (RADAR)
10:18AM -36.8727 146.4614 240° Southwest 207 238 9,900 -120 Level Aus ATC (RADAR)
10:19AM -36.9112 146.3834 238° Southwest 210 242 9,700 -120 Descending Aus ATC (RADAR)
10:20AM -36.9374 146.3329 237° Southwest 206 237 9,700  Level Aus ATC (RADAR)
10:21AM -36.9723 146.2686 236° Southwest 206 237 9,700  Level Aus ATC (RADAR)
10:22AM -37.0072 146.2024 236° Southwest 211 243 9,700  Level Aus ATC (RADAR)
10:23AM -37.0439 146.1362 235° Southwest 214 246 9,700  Level Aus ATC (RADAR)
10:24AM -37.0807 146.0697 235° Southwest 217 250 9,700  Level Aus ATC (RADAR)
10:25AM -37.1159 145.9995 238° Southwest 222 255 9,800  Climbing Aus ATC (RADAR)
10:26AM -37.1545 145.9296 235° Southwest 226 260 9,800  Level Aus ATC (RADAR)
10:27AM -37.1912 145.8654 234° Southwest 226 260 9,800 -60 Level Aus ATC (RADAR)
10:29AM -37.2307 145.7903 237° Southwest 219 252 9,700 -60 Descending Aus ATC (RADAR)
10:30AM -37.2702 145.7226 234° Southwest 222 255 9,700  Level Aus ATC (RADAR)
10:31AM -37.3109 145.6473 236° Southwest 223 257 9,700  Level Aus ATC (RADAR)
10:32AM -37.3502 145.5787 234° Southwest 223 257 9,700  Level Aus ATC (RADAR)
10:33AM -37.3901 145.5089 234° Southwest 228 262 9,700 120 Level Aus ATC (RADAR)
10:34AM -37.4287 145.4472 232° Southwest 224 258 10,000 -60 Climbing Aus ATC (RADAR)
10:35AM -37.4799 145.3802 226° Southwest 231 266 9,600 -780 Descending Aus ATC (RADAR)
10:36AM -37.5315 145.3282 219° Southwest 236 272 8,400 -1,140 Descending Aus ATC (RADAR)
10:37AM -37.5903 145.2775 214° Southwest 216 249 7,200 -1,200 Descending Aus ATC (RADAR)
10:38AM -37.6364 145.2297 219° Southwest 216 249 5,800 -1,320 Descending Aus ATC (RADAR)
10:39AM -37.6868 145.1784 219° Southwest 215 247 4,500 -1,020 Descending Aus ATC (RADAR)
10:40AM -37.7241 145.1306 225° Southwest 189 217 3,700 -720 Descending Aus ATC (RADAR)
10:41AM -37.7530 145.0733 237° Southwest 176 203 3,100 -240 Descending Aus ATC (RADAR)
10:43AM -37.7824 145.0173 236° Southwest 177 204 3,200  Climbing Aus ATC (RADAR)
10:44AM -37.8108 144.9612 237° Southwest 168 193 3,200 -60 Level Aus ATC (RADAR)
10:45AM -37.8327 144.9137 240° Southwest 157 181 3,100  Descending Aus ATC (RADAR)
10:46AM -37.8182 144.8736 295° West 146 168 3,200 -300 Climbing Aus ATC (RADAR)
10:47AM -37.7792 144.8604 345° North 119 137 2,500 -720 Descending Aus ATC (RADAR)
10:48AM -37.7472 144.8533 350° North 116 133 1,700 -720 Descending Aus ATC (RADAR)
10:49AM -37.7108 144.8462 351° North 129 148 1,000 -660 Descending Aus ATC (RADAR)
10:50AM -37.6754 144.8393 351° North 116 133 300 -660 Descending Aus ATC (RADAR)